createdAt,value
2017-11-05T00:01:45.865Z,6.83
2017-11-05T00:04:13.459Z,7.27
2017-11-05T00:06:41.037Z,8.13
2017-11-05T00:09:09.410Z,9.10
2017-11-05T00:11:37.781Z,6.97
2017-11-05T00:14:05.358Z,8.70
2017-11-05T00:16:32.967Z,8.60
2017-11-05T00:19:00.567Z,8.27
2017-11-05T00:21:28.162Z,10.50
2017-11-05T00:23:55.915Z,8.60
2017-11-05T00:26:24.285Z,9.03
2017-11-05T00:28:52.646Z,9.47
2017-11-05T00:31:20.242Z,9.30
2017-11-05T00:33:48.572Z,9.30
2017-11-05T00:36:16.182Z,8.30
2017-11-05T00:38:43.741Z,9.53
2017-11-05T00:41:12.106Z,10.40
2017-11-05T00:43:39.701Z,9.27
2017-11-05T00:46:07.339Z,11.00
2017-11-05T00:48:35.731Z,10.90
2017-11-05T00:51:04.084Z,10.77
2017-11-05T00:53:31.734Z,12.13
2017-11-05T00:55:59.317Z,12.20
2017-11-05T00:58:27.659Z,11.77
2017-11-05T01:00:55.254Z,11.37
2017-11-05T01:03:23.692Z,11.67
2017-11-05T01:05:51.336Z,12.80
2017-11-05T01:08:18.907Z,12.63
2017-11-05T01:10:46.526Z,12.60
2017-11-05T01:13:14.988Z,13.03
2017-11-05T01:15:42.569Z,13.33
2017-11-05T01:18:10.310Z,13.47
2017-11-05T01:20:37.873Z,12.37
2017-11-05T01:23:05.453Z,14.67
2017-11-05T01:25:33.784Z,13.83
2017-11-05T01:28:01.384Z,13.70
2017-11-05T01:30:28.921Z,13.93
2017-11-05T01:32:56.510Z,14.20
2017-11-05T01:35:24.090Z,15.07
2017-11-05T01:37:52.600Z,14.53
2017-11-05T01:40:20.309Z,14.70
2017-11-05T01:42:47.899Z,16.10
2017-11-05T01:45:15.475Z,14.97
2017-11-05T01:47:43.174Z,15.43
2017-11-05T01:50:10.846Z,14.37
2017-11-05T01:52:38.411Z,13.73
2017-11-05T01:55:05.975Z,16.70
2017-11-05T01:57:33.537Z,16.27
2017-11-05T02:00:01.116Z,15.20
2017-11-05T02:02:28.847Z,14.63
2017-11-05T02:04:56.419Z,15.20
2017-11-05T02:07:23.969Z,17.87
2017-11-05T02:09:51.544Z,18.60
2017-11-05T02:12:19.263Z,16.80
2017-11-05T02:14:46.846Z,19.07
2017-11-05T02:17:14.589Z,19.97
2017-11-05T02:19:42.167Z,20.50
2017-11-05T02:22:09.731Z,21.10
2017-11-05T02:24:37.429Z,20.00
2017-11-05T02:27:05.040Z,20.17
2017-11-05T02:29:32.629Z,20.00
2017-11-05T02:32:00.203Z,18.03
2017-11-05T02:34:27.778Z,18.90
2017-11-05T02:36:55.351Z,19.83
2017-11-05T02:39:22.934Z,18.73
2017-11-05T02:41:50.567Z,18.90
2017-11-05T02:44:18.895Z,18.13
2017-11-05T02:46:46.455Z,17.27
2017-11-05T02:49:14.015Z,19.40
2017-11-05T02:51:41.623Z,18.17
2017-11-05T02:54:09.205Z,18.67
2017-11-05T02:56:36.811Z,18.07
2017-11-05T02:59:04.374Z,17.40
2017-11-05T03:01:31.970Z,17.57
2017-11-05T03:03:59.571Z,16.97
2017-11-05T03:06:27.165Z,18.93
2017-11-05T03:08:54.851Z,17.83
2017-11-05T03:11:22.411Z,17.20
2017-11-05T03:13:49.974Z,17.20
2017-11-05T03:16:17.546Z,17.53
2017-11-05T03:18:45.385Z,19.10
2017-11-05T03:21:12.922Z,19.70
2017-11-05T03:23:40.651Z,18.20
2017-11-05T03:26:09.082Z,20.20
2017-11-05T03:28:37.034Z,18.27
2017-11-05T03:31:04.605Z,19.70
2017-11-05T03:33:32.162Z,19.17
2017-11-05T03:35:59.786Z,20.47
2017-11-05T03:38:28.103Z,20.13
2017-11-05T03:40:55.689Z,20.60
2017-11-05T03:43:23.243Z,20.10
2017-11-05T03:45:50.799Z,21.83
2017-11-05T03:48:18.365Z,19.23
2017-11-05T03:50:45.943Z,19.83
2017-11-05T03:53:13.502Z,20.77
2017-11-05T03:55:41.116Z,20.43
2017-11-05T03:58:09.416Z,19.37
2017-11-05T04:00:37.012Z,19.87
2017-11-05T04:03:04.755Z,19.03
2017-11-05T04:05:32.789Z,20.90
2017-11-05T04:08:00.566Z,20.63
2017-11-05T04:10:28.126Z,21.00
2017-11-05T04:12:55.697Z,19.97
2017-11-05T04:15:23.242Z,20.40
2017-11-05T04:17:50.991Z,20.63
2017-11-05T04:20:18.597Z,19.57
2017-11-05T04:22:46.168Z,22.23
2017-11-05T04:25:13.721Z,21.80
2017-11-05T04:27:41.321Z,19.70
2017-11-05T04:30:08.885Z,19.33
2017-11-05T04:32:36.478Z,18.77
2017-11-05T04:35:04.066Z,19.70
2017-11-05T04:37:31.645Z,20.07
2017-11-05T04:39:59.195Z,19.10
2017-11-05T04:42:26.761Z,16.87
2017-11-05T04:44:54.335Z,18.50
2017-11-05T04:47:22.663Z,17.43
2017-11-05T04:49:50.253Z,18.40
2017-11-05T04:52:17.940Z,17.70
2017-11-05T04:54:45.512Z,18.83
2017-11-05T04:57:13.081Z,20.00
2017-11-05T04:59:41.394Z,15.70
2017-11-05T05:02:09.061Z,17.60
2017-11-05T05:04:36.628Z,20.80
2017-11-05T05:07:04.165Z,19.07
2017-11-05T05:09:31.750Z,17.10
2017-11-05T05:11:59.304Z,18.87
2017-11-05T05:14:26.895Z,18.53
2017-11-05T05:16:54.446Z,17.17
2017-11-05T05:19:21.998Z,17.70
2017-11-05T05:21:49.562Z,16.80
2017-11-05T05:24:17.119Z,15.00
2017-11-05T05:26:44.714Z,14.17
2017-11-05T05:29:12.265Z,14.40
2017-11-05T05:31:39.822Z,15.07
2017-11-05T05:34:07.382Z,13.87
2017-11-05T05:36:34.934Z,14.63
2017-11-05T05:39:02.519Z,14.93
2017-11-05T05:41:30.349Z,13.93
2017-11-05T05:43:57.901Z,13.70
2017-11-05T05:46:25.482Z,15.00
2017-11-05T05:48:53.022Z,13.30
2017-11-05T05:51:20.603Z,14.70
2017-11-05T05:53:48.141Z,15.07
2017-11-05T05:56:15.719Z,15.67
2017-11-05T05:58:43.296Z,15.10
2017-11-05T06:01:10.909Z,14.37
2017-11-05T06:03:39.236Z,14.77
2017-11-05T06:06:06.795Z,16.60
2017-11-05T06:08:34.373Z,16.53
2017-11-05T06:11:01.910Z,18.07
2017-11-05T06:13:29.468Z,15.73
2017-11-05T06:15:57.046Z,17.17
2017-11-05T06:18:24.590Z,16.50
2017-11-05T06:20:52.178Z,18.30
2017-11-05T06:23:19.878Z,17.90
2017-11-05T06:25:48.222Z,16.60
2017-11-05T06:28:15.810Z,16.60
2017-11-05T06:30:43.929Z,17.03
2017-11-05T06:33:11.478Z,18.37
2017-11-05T06:35:39.043Z,16.43
2017-11-05T06:38:06.610Z,17.40
2017-11-05T06:40:34.161Z,19.10
2017-11-05T06:43:01.722Z,18.60
2017-11-05T06:45:29.298Z,17.70
2017-11-05T06:47:56.871Z,17.97
2017-11-05T06:50:24.624Z,19.67
2017-11-05T06:52:52.195Z,17.83
2017-11-05T06:55:19.778Z,18.52
2017-11-05T06:57:47.360Z,17.20
2017-11-05T07:00:14.928Z,16.95
2017-11-05T07:02:43.261Z,16.67
2017-11-05T07:05:10.814Z,15.50
2017-11-05T07:07:38.619Z,14.53
2017-11-05T07:10:06.176Z,16.40
2017-11-05T07:12:33.823Z,15.17
2017-11-05T07:15:01.411Z,17.42
2017-11-05T07:17:28.983Z,15.02
2017-11-05T07:19:56.893Z,16.73
2017-11-05T07:22:25.405Z,14.70
2017-11-05T07:24:53.611Z,11.97
2017-11-05T07:27:21.955Z,12.47
2017-11-05T07:29:49.503Z,12.77
2017-11-05T07:32:17.079Z,13.90
2017-11-05T07:34:44.637Z,13.87
2017-11-05T07:37:12.187Z,11.00
2017-11-05T07:39:39.758Z,11.20
2017-11-05T07:42:07.317Z,10.60
2017-11-05T07:44:34.986Z,10.73
2017-11-05T07:47:02.555Z,10.57
2017-11-05T07:49:30.118Z,12.03
2017-11-05T07:51:57.702Z,10.90
2017-11-05T07:54:25.247Z,10.43
2017-11-05T07:56:52.827Z,10.35
2017-11-05T07:59:21.221Z,10.40
2017-11-05T08:01:49.542Z,9.55
2017-11-05T08:04:17.136Z,9.67
2017-11-05T08:06:44.726Z,10.70
2017-11-05T08:09:13.038Z,9.57
2017-11-05T08:11:40.658Z,10.97
2017-11-05T08:14:08.262Z,10.17
2017-11-05T08:16:35.992Z,9.53
2017-11-05T08:19:04.326Z,10.73
2017-11-05T08:21:31.898Z,11.03
2017-11-05T08:23:59.470Z,10.63
2017-11-05T08:26:27.282Z,9.27
2017-11-05T08:28:54.876Z,7.67
2017-11-05T08:31:22.446Z,7.70
2017-11-05T08:33:50.009Z,7.30
2017-11-05T08:36:17.598Z,5.25
2017-11-05T08:38:46.033Z,6.87
2017-11-05T08:41:13.626Z,4.17
2017-11-05T08:43:41.188Z,4.30
2017-11-05T08:46:08.911Z,4.25
2017-11-05T08:48:36.518Z,4.55
2017-11-05T08:51:04.355Z,4.22
2017-11-05T08:53:32.289Z,4.15
2017-11-05T08:55:59.888Z,4.60
2017-11-05T08:58:28.001Z,6.10
2017-11-05T09:00:55.555Z,9.17
2017-11-05T09:03:23.097Z,6.80
2017-11-05T09:05:50.723Z,5.43
2017-11-05T09:08:18.299Z,5.05
2017-11-05T09:10:46.015Z,5.33
2017-11-05T09:13:13.789Z,5.63
2017-11-05T09:15:41.347Z,4.43
2017-11-05T09:18:09.447Z,4.70
2017-11-05T09:20:37.003Z,4.37
2017-11-05T09:23:05.356Z,4.40
2017-11-05T09:25:33.359Z,5.00
2017-11-05T09:28:01.080Z,5.70
2017-11-05T09:30:28.630Z,6.03
2017-11-05T09:32:56.949Z,4.63
2017-11-05T09:35:24.528Z,5.80
2017-11-05T09:37:52.103Z,4.70
2017-11-05T09:40:19.694Z,4.90
2017-11-05T09:42:48.255Z,5.00
2017-11-05T09:45:16.592Z,4.30
2017-11-05T09:47:44.343Z,4.83
2017-11-05T09:50:11.979Z,5.00
2017-11-05T09:52:39.986Z,5.63
2017-11-05T09:55:08.310Z,4.30
2017-11-05T09:57:36.138Z,3.90
2017-11-05T10:00:03.798Z,4.13
2017-11-05T10:02:31.359Z,3.90
2017-11-05T10:04:59.625Z,3.53
2017-11-05T10:07:27.696Z,3.90
2017-11-05T10:09:55.762Z,3.37
2017-11-05T10:12:24.103Z,3.03
2017-11-05T10:14:51.813Z,3.13
2017-11-05T10:17:19.369Z,3.00
2017-11-05T10:19:47.723Z,2.60
2017-11-05T10:22:15.970Z,3.70
2017-11-05T10:24:43.553Z,3.63
2017-11-05T10:27:11.125Z,3.33
2017-11-05T10:29:38.689Z,3.20
2017-11-05T10:32:06.554Z,3.80
2017-11-05T10:34:34.458Z,3.90
2017-11-05T10:37:02.184Z,3.60
2017-11-05T10:39:29.870Z,5.97
2017-11-05T10:41:58.285Z,4.40
2017-11-05T10:44:25.913Z,5.30
2017-11-05T10:46:55.151Z,4.83
2017-11-05T10:49:23.215Z,4.53
2017-11-05T10:51:51.637Z,4.23
2017-11-05T10:54:19.236Z,5.57
2017-11-05T10:56:47.054Z,5.10
2017-11-05T10:59:15.214Z,5.47
2017-11-05T11:01:42.865Z,4.60
2017-11-05T11:04:10.643Z,5.30
2017-11-05T11:06:38.831Z,5.30
2017-11-05T11:09:07.012Z,4.97
2017-11-05T11:11:34.752Z,5.50
2017-11-05T11:14:03.107Z,6.40
2017-11-05T11:16:31.667Z,8.10
2017-11-05T11:19:00.819Z,7.77
2017-11-05T11:21:28.531Z,7.27
2017-11-05T11:23:58.661Z,11.47
2017-11-05T11:26:28.382Z,14.37
2017-11-05T11:28:57.359Z,10.63
2017-11-05T11:31:25.786Z,9.67
2017-11-05T11:33:53.651Z,14.10
2017-11-05T11:36:21.479Z,16.50
2017-11-05T11:38:50.788Z,11.60
2017-11-05T11:41:19.505Z,7.53
2017-11-05T11:43:47.223Z,17.40
2017-11-05T11:46:15.955Z,19.30
2017-11-05T11:48:43.637Z,7.70
2017-11-05T11:51:11.236Z,5.83
2017-11-05T11:53:38.956Z,11.77
2017-11-05T11:56:06.534Z,11.43
2017-11-05T11:58:35.043Z,10.30
2017-11-05T12:01:02.715Z,12.20
2017-11-05T12:03:31.619Z,23.13
2017-11-05T12:06:01.250Z,10.60
2017-11-05T12:08:28.835Z,13.10
2017-11-05T12:10:57.186Z,9.47
2017-11-05T12:13:24.818Z,8.30
2017-11-05T12:15:52.378Z,4.80
2017-11-05T12:18:20.749Z,5.90
2017-11-05T12:20:48.389Z,5.60
2017-11-05T12:23:15.956Z,4.27
2017-11-05T12:25:43.574Z,7.70
2017-11-05T12:28:11.184Z,4.30
2017-11-05T12:30:38.892Z,13.80
2017-11-05T12:33:07.381Z,7.33
2017-11-05T12:35:36.777Z,7.40
2017-11-05T12:38:05.364Z,7.37
2017-11-05T12:40:33.788Z,5.87
2017-11-05T12:43:01.698Z,7.30
2017-11-05T12:45:30.235Z,6.57
2017-11-05T12:47:57.952Z,5.10
2017-11-05T12:50:25.608Z,4.30
2017-11-05T12:52:53.207Z,3.90
2017-11-05T12:55:21.885Z,6.00
2017-11-05T12:57:49.954Z,4.17
2017-11-05T13:00:17.562Z,4.73
2017-11-05T13:02:46.111Z,4.30
2017-11-05T13:05:14.987Z,5.13
2017-11-05T13:07:42.634Z,3.67
2017-11-05T13:10:10.371Z,3.73
2017-11-05T13:12:38.972Z,4.10
2017-11-05T13:15:06.576Z,3.50
2017-11-05T13:17:34.387Z,3.30
2017-11-05T13:20:02.045Z,4.10
2017-11-05T13:22:30.796Z,3.70
2017-11-05T13:24:58.393Z,4.07
2017-11-05T13:27:26.777Z,3.10
2017-11-05T13:29:55.202Z,4.10
2017-11-05T13:32:22.910Z,3.80
2017-11-05T13:34:50.482Z,3.90
2017-11-05T13:37:18.858Z,3.87
2017-11-05T13:39:46.487Z,3.80
2017-11-05T13:42:14.078Z,3.97
2017-11-05T13:44:42.494Z,5.20
2017-11-05T13:47:10.084Z,3.60
2017-11-05T13:49:37.693Z,4.37
2017-11-05T13:52:05.378Z,4.17
2017-11-05T13:54:32.959Z,4.50
2017-11-05T13:57:00.575Z,3.97
2017-11-05T13:59:41.956Z,3.80
2017-11-05T14:02:10.442Z,4.07
2017-11-05T14:04:38.007Z,3.63
2017-11-05T14:07:05.582Z,3.73
2017-11-05T14:09:33.150Z,3.73
2017-11-05T14:12:00.766Z,4.00
2017-11-05T14:14:29.200Z,3.00
2017-11-05T14:16:56.803Z,4.27
2017-11-05T14:19:25.194Z,2.87
2017-11-05T14:21:52.778Z,4.47
2017-11-05T14:24:20.409Z,3.10
2017-11-05T14:26:48.783Z,3.80
2017-11-05T14:29:17.133Z,3.40
2017-11-05T14:31:44.719Z,4.17
2017-11-05T14:34:13.106Z,3.47
2017-11-05T14:36:41.451Z,4.00
2017-11-05T14:39:09.032Z,4.60
2017-11-05T14:41:36.831Z,4.10
2017-11-05T14:44:04.418Z,4.50
2017-11-05T14:46:32.045Z,4.35
2017-11-05T14:49:00.421Z,4.72
2017-11-05T14:51:28.056Z,3.80
2017-11-05T14:53:55.627Z,3.67
2017-11-05T14:56:23.323Z,4.03
2017-11-05T14:58:50.948Z,4.60
2017-11-05T15:01:18.544Z,3.58
2017-11-05T15:03:46.164Z,4.20
2017-11-05T15:06:13.755Z,3.75
2017-11-05T15:08:41.387Z,5.05
2017-11-05T15:11:08.990Z,4.35
2017-11-05T15:13:36.566Z,4.35
2017-11-05T15:16:05.126Z,4.75
2017-11-05T15:18:32.689Z,4.30
2017-11-05T15:21:00.279Z,4.15
2017-11-05T15:23:28.652Z,4.32
2017-11-05T15:25:56.335Z,4.90
2017-11-05T15:28:24.647Z,4.10
2017-11-05T15:30:52.251Z,4.85
2017-11-05T15:33:19.838Z,4.50
2017-11-05T15:35:48.221Z,4.57
2017-11-05T15:38:16.614Z,4.05
2017-11-05T15:40:44.180Z,4.30
2017-11-05T15:43:12.002Z,4.35
2017-11-05T15:45:39.611Z,4.50
2017-11-05T15:48:07.245Z,4.47
2017-11-05T15:50:36.189Z,4.87
2017-11-05T15:53:03.766Z,4.82
2017-11-05T15:55:31.365Z,5.00
2017-11-05T15:57:59.760Z,4.65
2017-11-05T16:00:28.135Z,4.72
2017-11-05T16:02:56.470Z,5.87
2017-11-05T16:05:24.057Z,5.10
2017-11-05T16:07:51.667Z,5.90
2017-11-05T16:10:19.232Z,5.82
2017-11-05T16:12:46.820Z,4.85
2017-11-05T16:15:26.480Z,4.30
2017-11-05T16:17:54.824Z,5.00
2017-11-05T16:20:22.442Z,5.30
2017-11-05T16:22:50.789Z,5.35
2017-11-05T16:25:19.776Z,5.57
2017-11-05T16:27:48.191Z,4.97
2017-11-05T16:30:16.546Z,7.40
2017-11-05T16:32:44.162Z,4.87
2017-11-05T16:35:11.726Z,4.95
2017-11-05T16:37:39.296Z,5.20
2017-11-05T16:40:06.916Z,5.32
2017-11-05T16:42:35.272Z,7.10
2017-11-05T16:45:02.889Z,6.03
2017-11-05T16:47:34.575Z,6.72
2017-11-05T16:50:02.166Z,6.22
2017-11-05T16:52:30.010Z,6.72
2017-11-05T16:54:57.796Z,5.97
2017-11-05T16:57:25.379Z,6.37
2017-11-05T16:59:53.740Z,6.47
2017-11-05T17:02:21.325Z,5.95
2017-11-05T17:04:49.680Z,5.57
2017-11-05T17:07:17.276Z,5.12
2017-11-05T17:09:44.864Z,6.10
2017-11-05T17:12:12.507Z,5.85
2017-11-05T17:14:40.070Z,5.78
2017-11-05T17:17:07.681Z,5.75
2017-11-05T17:19:35.346Z,6.97
2017-11-05T17:22:02.916Z,7.47
2017-11-05T17:24:30.506Z,7.15
2017-11-05T17:27:00.371Z,6.12
2017-11-05T17:29:27.961Z,7.28
2017-11-05T17:31:55.571Z,7.10
2017-11-05T17:34:23.181Z,9.07
2017-11-05T17:36:50.772Z,7.80
2017-11-05T17:39:19.268Z,10.60
2017-11-05T17:41:47.770Z,9.35
2017-11-05T17:44:15.438Z,5.20
2017-11-05T17:46:43.020Z,6.40
2017-11-05T17:49:11.607Z,4.95
2017-11-05T17:51:39.227Z,5.18
2017-11-05T17:54:06.837Z,4.55
2017-11-05T17:56:35.081Z,5.15
2017-11-05T17:59:02.804Z,4.28
2017-11-05T18:01:30.387Z,3.70
2017-11-05T18:03:58.001Z,4.90
2017-11-05T18:06:25.647Z,5.60
2017-11-05T18:08:53.240Z,4.20
2017-11-05T18:11:20.888Z,4.32
2017-11-05T18:13:49.427Z,3.70
2017-11-05T18:16:17.786Z,3.70
2017-11-05T18:18:46.153Z,3.67
2017-11-05T18:21:13.737Z,4.90
2017-11-05T18:23:42.120Z,4.65
2017-11-05T18:26:10.573Z,4.05
2017-11-05T18:28:38.184Z,5.00
2017-11-05T18:31:05.896Z,3.85
2017-11-05T18:33:33.460Z,4.50
2017-11-05T18:36:01.077Z,4.28
2017-11-05T18:38:28.675Z,4.10
2017-11-05T18:40:56.285Z,4.28
2017-11-05T18:43:24.679Z,3.92
2017-11-05T18:45:52.770Z,4.37
2017-11-05T18:48:20.378Z,3.83
2017-11-05T18:50:48.091Z,4.60
2017-11-05T18:53:15.695Z,4.00
2017-11-05T18:55:43.273Z,5.07
2017-11-05T18:58:11.196Z,5.25
2017-11-05T19:00:38.814Z,6.05
2017-11-05T19:03:07.293Z,4.93
2017-11-05T19:05:35.919Z,5.22
2017-11-05T19:08:03.671Z,5.45
2017-11-05T19:10:32.031Z,6.65
2017-11-05T19:12:59.641Z,5.03
2017-11-05T19:15:27.311Z,5.53
2017-11-05T19:17:55.681Z,7.18
2017-11-05T19:20:23.272Z,5.05
2017-11-05T19:22:51.660Z,5.47
2017-11-05T19:25:20.015Z,4.97
2017-11-05T19:27:47.599Z,5.30
2017-11-05T19:30:16.002Z,5.85
2017-11-05T19:32:43.588Z,5.15
2017-11-05T19:35:11.221Z,5.20
2017-11-05T19:37:38.830Z,6.03
2017-11-05T19:40:06.405Z,5.97
2017-11-05T19:42:33.998Z,6.95
2017-11-05T19:45:02.374Z,5.15
2017-11-05T19:47:37.679Z,5.57
2017-11-05T19:50:06.182Z,7.25
2017-11-05T19:52:33.855Z,5.57
2017-11-05T19:55:02.209Z,6.30
2017-11-05T19:57:29.810Z,7.30
2017-11-05T19:59:59.021Z,6.55
2017-11-05T20:02:26.609Z,6.12
2017-11-05T20:04:54.185Z,5.45
2017-11-05T20:07:21.838Z,6.68
2017-11-05T20:09:49.423Z,5.80
2017-11-05T20:12:17.004Z,5.87
2017-11-05T20:14:45.443Z,6.12
2017-11-05T20:17:18.889Z,6.15
2017-11-05T20:19:46.525Z,6.35
2017-11-05T20:22:14.207Z,6.10
2017-11-05T20:24:42.023Z,6.35
2017-11-05T20:27:09.607Z,6.97
2017-11-05T20:29:38.681Z,6.90
2017-11-05T20:32:06.400Z,7.53
2017-11-05T20:34:34.782Z,7.32
2017-11-05T20:37:02.696Z,7.47
2017-11-05T20:39:31.956Z,7.78
2017-11-05T20:41:59.616Z,7.53
2017-11-05T20:44:27.405Z,8.05
2017-11-05T20:46:55.108Z,8.55
2017-11-05T20:49:22.754Z,8.38
2017-11-05T20:51:50.345Z,9.00
2017-11-05T20:54:17.903Z,8.20
2017-11-05T20:56:45.724Z,10.15
2017-11-05T20:59:13.755Z,9.05
2017-11-05T21:01:41.611Z,9.93
2017-11-05T21:04:09.489Z,8.23
2017-11-05T21:06:39.123Z,9.80
2017-11-05T21:09:06.879Z,11.20
2017-11-05T21:11:35.279Z,8.55
2017-11-05T21:14:04.784Z,9.52
2017-11-05T21:16:33.343Z,9.20
2017-11-05T21:19:01.700Z,9.15
2017-11-05T21:21:29.293Z,10.48
2017-11-05T21:23:57.712Z,9.40
2017-11-05T21:26:25.346Z,10.18
2017-11-05T21:28:52.968Z,10.57
2017-11-05T21:31:20.636Z,11.32
2017-11-05T21:33:57.739Z,10.57
2017-11-05T21:36:26.113Z,10.43
2017-11-05T21:38:54.481Z,10.60
2017-11-05T21:41:22.187Z,10.80
2017-11-05T21:43:49.824Z,11.90
2017-11-05T21:46:18.175Z,10.85
2017-11-05T21:48:45.928Z,10.52
2017-11-05T21:51:13.504Z,11.05
2017-11-05T21:53:41.201Z,11.85
2017-11-05T21:56:09.666Z,10.80
2017-11-05T21:58:37.976Z,10.77
2017-11-05T22:01:06.330Z,11.02
2017-11-05T22:03:33.941Z,11.52
2017-11-05T22:06:01.523Z,10.00
2017-11-05T22:08:30.040Z,9.15
2017-11-05T22:10:57.650Z,9.85
2017-11-05T22:13:25.264Z,8.98
2017-11-05T22:15:52.845Z,9.70
2017-11-05T22:18:21.183Z,9.70
2017-11-05T22:20:48.820Z,11.10
2017-11-05T22:23:16.401Z,10.55
2017-11-05T22:25:44.218Z,10.05
2017-11-05T22:28:11.853Z,9.00
2017-11-05T22:30:39.509Z,9.20
2017-11-05T22:33:07.157Z,9.05
2017-11-05T22:35:34.820Z,9.80
2017-11-05T22:38:02.518Z,8.70
2017-11-05T22:40:30.311Z,8.60
2017-11-05T22:42:58.328Z,8.40
2017-11-05T22:45:25.953Z,9.57
2017-11-05T22:47:53.612Z,9.25
2017-11-05T22:50:21.961Z,9.75
2017-11-05T22:52:50.459Z,8.68
2017-11-05T22:55:18.020Z,7.85
2017-11-05T22:57:46.535Z,8.85
2017-11-05T23:00:14.218Z,8.30
2017-11-05T23:02:41.803Z,10.00
2017-11-05T23:05:09.386Z,7.97
2017-11-05T23:07:36.974Z,8.77
2017-11-05T23:10:05.307Z,8.80
2017-11-05T23:12:32.889Z,9.93
2017-11-05T23:15:00.784Z,11.68
2017-11-05T23:17:29.121Z,13.23
2017-11-05T23:19:56.728Z,12.07
2017-11-05T23:22:24.450Z,11.50
2017-11-05T23:24:52.010Z,11.55
2017-11-05T23:27:19.608Z,12.85
2017-11-05T23:29:47.985Z,13.02
2017-11-05T23:32:16.377Z,13.43
2017-11-05T23:34:45.495Z,11.32
2017-11-05T23:37:13.134Z,12.43
2017-11-05T23:39:41.542Z,11.52
2017-11-05T23:42:09.146Z,9.15
2017-11-05T23:44:36.724Z,10.98
2017-11-05T23:47:04.322Z,10.02
2017-11-05T23:49:31.889Z,10.45
2017-11-05T23:51:59.639Z,13.00
2017-11-05T23:54:27.215Z,10.02
2017-11-05T23:56:54.799Z,10.90
2017-11-05T23:59:23.168Z,9.38
